sensor_id;sensor_type;location;lat;lon;timestamp;pressure;altitude;pressure_sealevel;temperature;humidity
74868;BME280;63419;42.262;12.210;2022-09-13T00:00:48;97408.72;;;19.85;100.00
74868;BME280;63419;42.262;12.210;2022-09-13T00:03:19;97410.84;;;19.81;100.00
74868;BME280;63419;42.262;12.210;2022-09-13T00:05:46;97414.59;;;19.78;100.00
74868;BME280;63419;42.262;12.210;2022-09-13T00:08:13;97404.31;;;19.85;100.00
74868;BME280;63419;42.262;12.210;2022-09-13T00:10:41;97411.38;;;19.93;100.00
74868;BME280;63419;42.262;12.210;2022-09-13T00:13:11;97411.19;;;19.86;100.00
74868;BME280;63419;42.262;12.210;2022-09-13T00:15:44;97405.16;;;19.86;100.00
74868;BME280;63419;42.262;12.210;2022-09-13T00:18:11;97405.81;;;19.88;100.00
74868;BME280;63419;42.262;12.210;2022-09-13T00:20:37;97405.97;;;19.94;100.00
74868;BME280;63419;42.262;12.210;2022-09-13T00:23:03;97403.53;;;19.93;100.00
74868;BME280;63419;42.262;12.210;2022-09-13T00:25:30;97408.09;;;19.91;100.00
74868;BME280;63419;42.262;12.210;2022-09-13T00:27:56;97408.88;;;19.83;100.00
74868;BME280;63419;42.262;12.210;2022-09-13T00:30:22;97410.69;;;19.48;100.00
74868;BME280;63419;42.262;12.210;2022-09-13T00:32:48;97414.72;;;19.08;100.00
74868;BME280;63419;42.262;12.210;2022-09-13T00:35:14;97417.47;;;18.98;100.00
74868;BME280;63419;42.262;12.210;2022-09-13T00:37:40;97415.47;;;18.74;100.00
74868;BME280;63419;42.262;12.210;2022-09-13T00:40:07;97414.94;;;18.89;100.00
74868;BME280;63419;42.262;12.210;2022-09-13T00:42:33;97415.81;;;18.97;100.00
74868;BME280;63419;42.262;12.210;2022-09-13T00:45:01;97417.78;;;18.05;100.00
74868;BME280;63419;42.262;12.210;2022-09-13T00:52:37;97404.00;;;17.30;100.00
74868;BME280;63419;42.262;12.210;2022-09-13T00:55:37;97405.28;;;17.54;100.00
74868;BME280;63419;42.262;12.210;2022-09-13T00:58:20;97400.19;;;17.80;100.00
74868;BME280;63419;42.262;12.210;2022-09-13T01:00:49;97399.59;;;17.96;100.00
74868;BME280;63419;42.262;12.210;2022-09-13T01:03:18;97401.66;;;17.37;100.00
74868;BME280;63419;42.262;12.210;2022-09-13T01:08:24;97385.72;;;17.02;100.00
74868;BME280;63419;42.262;12.210;2022-09-13T01:10:51;97381.94;;;17.52;100.00
74868;BME280;63419;42.262;12.210;2022-09-13T01:13:25;97382.09;;;17.50;100.00
74868;BME280;63419;42.262;12.210;2022-09-13T01:15:52;97386.34;;;17.79;100.00
74868;BME280;63419;42.262;12.210;2022-09-13T01:18:18;97386.72;;;17.84;100.00
74868;BME280;63419;42.262;12.210;2022-09-13T01:44:33;97366.69;;;18.39;100.00
74868;BME280;63419;42.262;12.210;2022-09-13T01:47:34;97361.09;;;17.98;100.00
74868;BME280;63419;42.262;12.210;2022-09-13T01:52:57;97357.91;;;18.22;100.00
74868;BME280;63419;42.262;12.210;2022-09-13T01:56:38;97358.63;;;18.32;100.00
74868;BME280;63419;42.262;12.210;2022-09-13T02:01:19;97355.69;;;18.53;100.00
74868;BME280;63419;42.262;12.210;2022-09-13T02:03:57;97367.38;;;18.67;100.00
74868;BME280;63419;42.262;12.210;2022-09-13T02:06:33;97360.47;;;18.58;100.00
74868;BME280;63419;42.262;12.210;2022-09-13T02:09:12;97353.53;;;18.75;100.00
74868;BME280;63419;42.262;12.210;2022-09-13T02:11:44;97355.38;;;18.56;100.00
74868;BME280;63419;42.262;12.210;2022-09-13T02:14:18;97351.78;;;17.67;100.00
74868;BME280;63419;42.262;12.210;2022-09-13T02:16:54;97340.56;;;17.85;100.00
74868;BME280;63419;42.262;12.210;2022-09-13T02:21:59;97335.75;;;18.08;100.00
74868;BME280;63419;42.262;12.210;2022-09-13T02:24:37;97333.19;;;18.16;100.00
74868;BME280;63419;42.262;12.210;2022-09-13T02:27:11;97335.75;;;18.08;100.00
74868;BME280;63419;42.262;12.210;2022-09-13T02:29:41;97330.91;;;18.13;100.00
74868;BME280;63419;42.262;12.210;2022-09-13T02:32:20;97334.59;;;18.29;100.00
74868;BME280;63419;42.262;12.210;2022-09-13T02:34:54;97337.66;;;18.42;100.00
74868;BME280;63419;42.262;12.210;2022-09-13T02:37:24;97349.28;;;18.48;100.00
74868;BME280;63419;42.262;12.210;2022-09-13T02:40:02;97352.59;;;16.55;100.00
74868;BME280;63419;42.262;12.210;2022-09-13T02:42:42;97325.69;;;16.74;100.00
74868;BME280;63419;42.262;12.210;2022-09-13T02:45:11;97298.44;;;17.06;100.00
74868;BME280;63419;42.262;12.210;2022-09-13T02:47:50;97301.59;;;17.10;100.00
74868;BME280;63419;42.262;12.210;2022-09-13T03:01:16;97224.34;;;16.44;100.00
74868;BME280;63419;42.262;12.210;2022-09-13T03:03:42;97218.28;;;16.53;100.00
74868;BME280;63419;42.262;12.210;2022-09-13T03:06:09;97203.06;;;15.91;100.00
74868;BME280;63419;42.262;12.210;2022-09-13T03:08:36;97160.66;;;15.61;100.00
74868;BME280;63419;42.262;12.210;2022-09-13T03:30:33;96935.44;;;16.42;100.00
74868;BME280;63419;42.262;12.210;2022-09-13T03:33:51;96944.66;;;16.72;100.00
74868;BME280;63419;42.262;12.210;2022-09-13T03:36:35;96965.75;;;17.05;100.00
74868;BME280;63419;42.262;12.210;2022-09-13T03:39:56;96998.34;;;17.54;100.00
74868;BME280;63419;42.262;12.210;2022-09-13T03:42:52;97051.13;;;17.74;100.00
74868;BME280;63419;42.262;12.210;2022-09-13T03:45:25;97079.88;;;17.82;100.00
74868;BME280;63419;42.262;12.210;2022-09-13T03:47:53;97094.63;;;17.91;100.00
74868;BME280;63419;42.262;12.210;2022-09-13T03:50:23;97118.69;;;18.03;100.00
74868;BME280;63419;42.262;12.210;2022-09-13T03:53:01;97146.44;;;18.04;100.00
74868;BME280;63419;42.262;12.210;2022-09-13T03:55:32;97165.31;;;17.98;100.00
74868;BME280;63419;42.262;12.210;2022-09-13T03:58:00;97178.66;;;17.95;100.00
74868;BME280;63419;42.262;12.210;2022-09-13T04:00:26;97182.56;;;17.91;100.00
74868;BME280;63419;42.262;12.210;2022-09-13T04:02:52;97191.88;;;17.93;100.00
74868;BME280;63419;42.262;12.210;2022-09-13T04:05:20;97192.34;;;17.88;100.00
74868;BME280;63419;42.262;12.210;2022-09-13T04:07:46;97195.03;;;17.97;100.00
74868;BME280;63419;42.262;12.210;2022-09-13T04:10:13;97213.06;;;18.16;100.00
74868;BME280;63419;42.262;12.210;2022-09-13T04:12:40;97233.94;;;18.34;100.00
74868;BME280;63419;42.262;12.210;2022-09-13T04:15:07;97246.53;;;18.39;100.00
74868;BME280;63419;42.262;12.210;2022-09-13T04:17:33;97255.34;;;18.38;100.00
74868;BME280;63419;42.262;12.210;2022-09-13T04:19:59;97253.97;;;18.25;100.00
74868;BME280;63419;42.262;12.210;2022-09-13T04:22:25;97262.19;;;18.39;100.00
74868;BME280;63419;42.262;12.210;2022-09-13T04:24:51;97266.03;;;18.26;100.00
74868;BME280;63419;42.262;12.210;2022-09-13T04:27:18;97257.78;;;18.13;100.00
74868;BME280;63419;42.262;12.210;2022-09-13T04:29:43;97262.94;;;18.05;100.00
74868;BME280;63419;42.262;12.210;2022-09-13T04:32:10;97254.19;;;18.14;100.00
74868;BME280;63419;42.262;12.210;2022-09-13T04:34:36;97260.41;;;18.13;100.00
74868;BME280;63419;42.262;12.210;2022-09-13T04:37:02;97262.03;;;18.14;100.00
74868;BME280;63419;42.262;12.210;2022-09-13T04:39:28;97260.75;;;18.18;100.00
74868;BME280;63419;42.262;12.210;2022-09-13T04:41:54;97258.50;;;18.23;100.00
74868;BME280;63419;42.262;12.210;2022-09-13T04:44:22;97261.09;;;18.23;100.00
74868;BME280;63419;42.262;12.210;2022-09-13T04:46:49;97268.19;;;18.31;100.00
74868;BME280;63419;42.262;12.210;2022-09-13T04:49:17;97259.19;;;18.25;100.00
74868;BME280;63419;42.262;12.210;2022-09-13T04:51:45;97260.84;;;18.08;100.00
74868;BME280;63419;42.262;12.210;2022-09-13T04:54:11;97261.00;;;18.07;100.00
74868;BME280;63419;42.262;12.210;2022-09-13T04:56:38;97270.00;;;18.13;100.00
74868;BME280;63419;42.262;12.210;2022-09-13T04:59:04;97268.09;;;18.15;100.00
74868;BME280;63419;42.262;12.210;2022-09-13T05:01:30;97277.03;;;18.12;100.00
74868;BME280;63419;42.262;12.210;2022-09-13T05:03:57;97277.69;;;18.14;100.00
74868;BME280;63419;42.262;12.210;2022-09-13T05:06:23;97278.13;;;18.27;100.00
74868;BME280;63419;42.262;12.210;2022-09-13T05:08:52;97285.97;;;18.27;100.00
74868;BME280;63419;42.262;12.210;2022-09-13T05:11:27;97284.91;;;18.38;100.00
74868;BME280;63419;42.262;12.210;2022-09-13T05:13:58;97294.19;;;18.41;100.00
74868;BME280;63419;42.262;12.210;2022-09-13T05:16:31;97295.22;;;18.48;100.00
74868;BME280;63419;42.262;12.210;2022-09-13T05:18:58;97295.84;;;18.42;100.00
74868;BME280;63419;42.262;12.210;2022-09-13T05:21:25;97303.53;;;18.43;100.00
74868;BME280;63419;42.262;12.210;2022-09-13T05:23:54;97305.16;;;18.44;100.00
74868;BME280;63419;42.262;12.210;2022-09-13T05:26:24;97305.09;;;18.54;100.00
74868;BME280;63419;42.262;12.210;2022-09-13T05:28:50;97309.69;;;18.60;100.00
74868;BME280;63419;42.262;12.210;2022-09-13T05:31:21;97311.34;;;18.61;100.00
74868;BME280;63419;42.262;12.210;2022-09-13T05:33:58;97299.47;;;18.05;100.00
74868;BME280;63419;42.262;12.210;2022-09-13T05:36:26;97302.59;;;18.26;100.00
74868;BME280;63419;42.262;12.210;2022-09-13T05:38:56;97302.19;;;18.39;100.00
74868;BME280;63419;42.262;12.210;2022-09-13T05:41:23;97308.25;;;18.40;100.00
74868;BME280;63419;42.262;12.210;2022-09-13T05:43:49;97299.72;;;18.56;100.00
74868;BME280;63419;42.262;12.210;2022-09-13T05:46:17;97302.84;;;18.15;100.00
74868;BME280;63419;42.262;12.210;2022-09-13T05:48:45;97302.56;;;18.44;100.00
74868;BME280;63419;42.262;12.210;2022-09-13T05:51:20;97305.28;;;18.61;100.00
74868;BME280;63419;42.262;12.210;2022-09-13T05:53:50;97306.84;;;18.27;100.00
74868;BME280;63419;42.262;12.210;2022-09-13T05:56:21;97303.50;;;17.81;100.00
74868;BME280;63419;42.262;12.210;2022-09-13T05:58:50;97296.81;;;17.97;100.00
74868;BME280;63419;42.262;12.210;2022-09-13T06:01:19;97291.91;;;18.20;100.00
74868;BME280;63419;42.262;12.210;2022-09-13T06:03:48;97296.47;;;18.18;100.00
74868;BME280;63419;42.262;12.210;2022-09-13T06:06:15;97305.31;;;18.43;100.00
74868;BME280;63419;42.262;12.210;2022-09-13T06:08:41;97305.59;;;18.58;100.00
74868;BME280;63419;42.262;12.210;2022-09-13T06:11:10;97303.78;;;18.58;100.00
74868;BME280;63419;42.262;12.210;2022-09-13T06:13:37;97299.56;;;18.13;100.00
74868;BME280;63419;42.262;12.210;2022-09-13T06:16:08;97286.06;;;18.00;100.00
74868;BME280;63419;42.262;12.210;2022-09-13T06:18:36;97284.25;;;17.82;100.00
74868;BME280;63419;42.262;12.210;2022-09-13T06:21:06;97272.16;;;18.17;100.00
74868;BME280;63419;42.262;12.210;2022-09-13T06:23:34;97268.09;;;18.15;100.00
74868;BME280;63419;42.262;12.210;2022-09-13T06:26:06;97260.28;;;18.23;100.00
74868;BME280;63419;42.262;12.210;2022-09-13T06:28:34;97258.19;;;18.00;100.00
74868;BME280;63419;42.262;12.210;2022-09-13T06:31:04;97223.19;;;17.93;100.00
74868;BME280;63419;42.262;12.210;2022-09-13T06:33:35;97192.19;;;18.16;100.00
74868;BME280;63419;42.262;12.210;2022-09-13T06:36:07;97167.09;;;18.23;100.00
74868;BME280;63419;42.262;12.210;2022-09-13T06:38:34;97140.09;;;18.41;100.00
74868;BME280;63419;42.262;12.210;2022-09-13T06:41:03;97118.56;;;18.13;100.00
74868;BME280;63419;42.262;12.210;2022-09-13T06:43:32;97095.00;;;18.31;100.00
74868;BME280;63419;42.262;12.210;2022-09-13T06:46:05;97089.66;;;18.40;100.00
74868;BME280;63419;42.262;12.210;2022-09-13T06:48:36;97101.66;;;18.68;100.00
74868;BME280;63419;42.262;12.210;2022-09-13T06:51:09;97121.94;;;18.74;100.00
74868;BME280;63419;42.262;12.210;2022-09-13T06:53:37;97130.88;;;18.63;100.00
74868;BME280;63419;42.262;12.210;2022-09-13T06:56:10;97140.00;;;18.93;100.00
74868;BME280;63419;42.262;12.210;2022-09-13T06:58:39;97155.56;;;19.11;100.00
74868;BME280;63419;42.262;12.210;2022-09-13T07:01:12;97170.44;;;19.27;100.00
74868;BME280;63419;42.262;12.210;2022-09-13T07:03:47;97185.81;;;19.38;100.00
74868;BME280;63419;42.262;12.210;2022-09-13T07:06:17;97192.38;;;19.51;100.00
74868;BME280;63419;42.262;12.210;2022-09-13T07:08:46;97196.31;;;19.63;100.00
74868;BME280;63419;42.262;12.210;2022-09-13T07:11:15;97213.00;;;19.78;100.00
74868;BME280;63419;42.262;12.210;2022-09-13T07:13:51;97222.00;;;20.17;100.00
74868;BME280;63419;42.262;12.210;2022-09-13T07:16:19;97240.66;;;20.22;100.00
74868;BME280;63419;42.262;12.210;2022-09-13T07:18:54;97255.34;;;20.56;100.00
74868;BME280;63419;42.262;12.210;2022-09-13T07:21:24;97268.91;;;20.76;100.00
74868;BME280;63419;42.262;12.210;2022-09-13T07:23:52;97287.94;;;20.70;100.00
74868;BME280;63419;42.262;12.210;2022-09-13T07:26:19;97296.75;;;20.85;100.00
74868;BME280;63419;42.262;12.210;2022-09-13T07:28:49;97320.97;;;21.04;100.00
74868;BME280;63419;42.262;12.210;2022-09-13T07:31:23;97333.69;;;21.23;100.00
74868;BME280;63419;42.262;12.210;2022-09-13T07:34:02;97348.41;;;21.24;100.00
74868;BME280;63419;42.262;12.210;2022-09-13T07:36:31;97346.91;;;21.38;100.00
74868;BME280;63419;42.262;12.210;2022-09-13T07:38:59;97351.50;;;21.76;100.00
74868;BME280;63419;42.262;12.210;2022-09-13T07:41:26;97358.69;;;21.82;100.00
74868;BME280;63419;42.262;12.210;2022-09-13T07:43:52;97355.47;;;21.72;100.00
74868;BME280;63419;42.262;12.210;2022-09-13T07:46:27;97366.59;;;21.82;100.00
74868;BME280;63419;42.262;12.210;2022-09-13T07:48:55;97367.66;;;21.64;100.00
74868;BME280;63419;42.262;12.210;2022-09-13T07:51:28;97380.59;;;21.97;100.00
74868;BME280;63419;42.262;12.210;2022-09-13T07:53:57;97384.94;;;22.36;100.00
74868;BME280;63419;42.262;12.210;2022-09-13T07:56:30;97385.06;;;22.66;100.00
74868;BME280;63419;42.262;12.210;2022-09-13T07:58:59;97387.06;;;22.41;100.00
74868;BME280;63419;42.262;12.210;2022-09-13T08:04:00;97394.88;;;22.49;100.00
74868;BME280;63419;42.262;12.210;2022-09-13T08:06:29;97397.47;;;22.72;100.00
74868;BME280;63419;42.262;12.210;2022-09-13T08:08:56;97409.50;;;22.29;100.00
74868;BME280;63419;42.262;12.210;2022-09-13T08:11:29;97413.41;;;22.24;100.00
74868;BME280;63419;42.262;12.210;2022-09-13T08:13:57;97409.00;;;22.71;100.00
74868;BME280;63419;42.262;12.210;2022-09-13T08:16:25;97408.28;;;22.77;100.00
74868;BME280;63419;42.262;12.210;2022-09-13T08:18:55;97412.75;;;22.54;100.00
74868;BME280;63419;42.262;12.210;2022-09-13T08:21:24;97404.91;;;22.69;100.00
74868;BME280;63419;42.262;12.210;2022-09-13T08:23:54;97413.09;;;22.89;100.00
74868;BME280;63419;42.262;12.210;2022-09-13T08:26:21;97413.34;;;23.17;100.00
74868;BME280;63419;42.262;12.210;2022-09-13T08:28:47;97408.28;;;23.45;100.00
74868;BME280;63419;42.262;12.210;2022-09-13T08:31:15;97413.28;;;23.55;100.00
74868;BME280;63419;42.262;12.210;2022-09-13T08:33:44;97413.47;;;23.53;100.00
74868;BME280;63419;42.262;12.210;2022-09-13T08:36:10;97413.06;;;23.71;100.00
74868;BME280;63419;42.262;12.210;2022-09-13T08:38:37;97409.50;;;23.79;100.00
74868;BME280;63419;42.262;12.210;2022-09-13T08:46:44;97426.78;;;24.18;100.00
74868;BME280;63419;42.262;12.210;2022-09-13T08:49:18;97419.91;;;24.39;100.00
74868;BME280;63419;42.262;12.210;2022-09-13T08:54:14;97428.88;;;24.23;100.00
74868;BME280;63419;42.262;12.210;2022-09-13T09:07:29;97429.97;;;25.63;100.00
74868;BME280;63419;42.262;12.210;2022-09-13T09:10:04;97427.22;;;25.84;100.00
74868;BME280;63419;42.262;12.210;2022-09-13T09:12:42;97419.28;;;26.46;100.00
74868;BME280;63419;42.262;12.210;2022-09-13T09:15:30;97422.56;;;25.38;100.00
74868;BME280;63419;42.262;12.210;2022-09-13T09:18:08;97422.94;;;25.07;100.00
74868;BME280;63419;42.262;12.210;2022-09-13T09:20:43;97416.25;;;25.11;100.00
74868;BME280;63419;42.262;12.210;2022-09-13T09:26:17;97415.75;;;24.94;100.00
74868;BME280;63419;42.262;12.210;2022-09-13T09:28:53;97407.28;;;25.05;100.00
74868;BME280;63419;42.262;12.210;2022-09-13T09:36:48;97409.81;;;25.20;100.00
74868;BME280;63419;42.262;12.210;2022-09-13T09:39:18;97414.28;;;25.20;100.00
74868;BME280;63419;42.262;12.210;2022-09-13T09:41:44;97405.47;;;25.76;100.00
74868;BME280;63419;42.262;12.210;2022-09-13T09:44:21;97409.69;;;25.63;100.00
74868;BME280;63419;42.262;12.210;2022-09-13T09:46:56;97396.69;;;25.69;100.00
74868;BME280;63419;42.262;12.210;2022-09-13T09:50:21;97399.94;;;26.39;100.00
74868;BME280;63419;42.262;12.210;2022-09-13T09:53:02;97404.81;;;25.67;100.00
74868;BME280;63419;42.262;12.210;2022-09-13T09:55:41;97405.16;;;25.57;100.00
74868;BME280;63419;42.262;12.210;2022-09-13T09:58:11;97405.06;;;25.86;100.00
74868;BME280;63419;42.262;12.210;2022-09-13T10:03:23;97395.66;;;26.38;100.00
74868;BME280;63419;42.262;12.210;2022-09-13T10:05:50;97388.09;;;26.08;100.00
74868;BME280;63419;42.262;12.210;2022-09-13T10:08:25;97397.31;;;25.71;100.00
74868;BME280;63419;42.262;12.210;2022-09-13T10:10:56;97384.44;;;26.16;100.00
74868;BME280;63419;42.262;12.210;2022-09-13T10:13:25;97378.53;;;27.34;100.00
74868;BME280;63419;42.262;12.210;2022-09-13T10:15:57;97382.47;;;26.78;100.00
74868;BME280;63419;42.262;12.210;2022-09-13T10:18:27;97383.88;;;26.60;100.00
74868;BME280;63419;42.262;12.210;2022-09-13T10:23:27;97375.09;;;26.27;100.00
74868;BME280;63419;42.262;12.210;2022-09-13T10:26:01;97374.50;;;26.45;100.00
74868;BME280;63419;42.262;12.210;2022-09-13T10:31:12;97360.88;;;26.88;100.00
74868;BME280;63419;42.262;12.210;2022-09-13T10:33:51;97354.56;;;26.95;100.00
74868;BME280;63419;42.262;12.210;2022-09-13T10:36:28;97370.84;;;26.39;100.00
74868;BME280;63419;42.262;12.210;2022-09-13T10:41:33;97354.13;;;27.19;100.00
74868;BME280;63419;42.262;12.210;2022-09-13T10:44:06;97357.22;;;27.67;100.00
74868;BME280;63419;42.262;12.210;2022-09-13T10:46:48;97364.31;;;27.73;100.00
74868;BME280;63419;42.262;12.210;2022-09-13T10:51:50;97351.78;;;28.58;100.00
74868;BME280;63419;42.262;12.210;2022-09-13T10:54:22;97355.84;;;28.28;100.00
74868;BME280;63419;42.262;12.210;2022-09-13T10:56:49;97359.19;;;27.79;100.00
74868;BME280;63419;42.262;12.210;2022-09-13T11:04:35;97358.34;;;27.85;100.00
74868;BME280;63419;42.262;12.210;2022-09-13T11:07:15;97343.28;;;28.93;100.00
74868;BME280;63419;42.262;12.210;2022-09-13T11:09:58;97346.69;;;29.00;100.00
74868;BME280;63419;42.262;12.210;2022-09-13T11:12:36;97356.09;;;27.95;100.00
74868;BME280;63419;42.262;12.210;2022-09-13T11:30:21;97332.28;;;31.30;100.00
74868;BME280;63419;42.262;12.210;2022-09-13T11:35:33;97329.09;;;31.57;100.00
